createdAt,value
2019-05-02T00:01:30.105Z,99617.17
2019-05-02T00:03:58.415Z,99612.63
2019-05-02T00:06:27.692Z,99608.06
2019-05-02T00:08:59.108Z,99608.06
2019-05-02T00:11:29.406Z,99612.08
2019-05-02T00:13:59.247Z,99608.34
2019-05-02T00:16:29.341Z,99604.09
2019-05-02T00:18:58.186Z,99611.34
2019-05-02T00:21:26.360Z,99600.11
2019-05-02T00:23:54.447Z,99605.23
2019-05-02T00:26:24.579Z,99611.09
2019-05-02T00:28:52.564Z,99605.39
2019-05-02T00:31:21.316Z,99601.55
2019-05-02T00:33:49.521Z,99600.41
2019-05-02T00:36:17.627Z,99590.09
2019-05-02T00:38:45.733Z,99588.78
2019-05-02T00:41:13.954Z,99594.23
2019-05-02T00:43:42.228Z,99588.67
2019-05-02T00:46:10.559Z,99592.81
2019-05-02T00:48:44.185Z,99583.28
2019-05-02T00:51:12.239Z,99579.53
2019-05-02T00:53:44.398Z,99577.81
2019-05-02T00:56:10.801Z,99574.94
2019-05-02T00:58:39.014Z,99578.44
2019-05-02T01:01:29.450Z,99579.84
2019-05-02T01:04:00.573Z,99574.09
2019-05-02T01:06:28.933Z,99578.53
2019-05-02T01:08:57.015Z,99573.64
2019-05-02T01:11:28.234Z,99573.03
2019-05-02T01:13:57.592Z,99570.00
2019-05-02T01:16:25.862Z,99579.66
2019-05-02T01:18:54.310Z,99583.50
2019-05-02T01:21:22.779Z,99586.02
2019-05-02T01:23:51.499Z,99582.24
2019-05-02T01:26:24.174Z,99585.77
2019-05-02T01:29:00.166Z,99581.58
2019-05-02T01:31:44.697Z,99583.59
2019-05-02T01:34:35.391Z,99580.02
2019-05-02T01:37:27.739Z,99574.96
2019-05-02T01:39:55.851Z,99570.61
2019-05-02T01:42:23.908Z,99574.60
2019-05-02T01:44:51.969Z,99575.30
2019-05-02T01:47:20.055Z,99575.16
2019-05-02T01:49:52.025Z,99578.95
2019-05-02T01:52:23.569Z,99581.16
2019-05-02T01:54:49.371Z,99575.08
2019-05-02T01:57:17.416Z,99582.03
2019-05-02T01:59:45.474Z,99581.41
2019-05-02T02:02:13.633Z,99581.66
2019-05-02T02:04:41.832Z,99578.84
2019-05-02T02:07:09.889Z,99576.22
2019-05-02T02:09:38.845Z,99577.91
2019-05-02T02:12:09.719Z,99570.29
2019-05-02T02:14:38.254Z,99576.55
2019-05-02T02:17:09.977Z,99574.89
2019-05-02T02:19:42.608Z,99574.27
2019-05-02T02:22:29.089Z,99576.40
2019-05-02T02:25:15.810Z,99581.23
2019-05-02T02:27:45.551Z,99576.22
2019-05-02T02:30:17.684Z,99581.47
2019-05-02T02:32:45.299Z,99575.60
2019-05-02T02:35:13.419Z,99575.15
2019-05-02T02:37:52.121Z,99567.16
2019-05-02T02:40:11.799Z,99571.09
2019-05-02T02:42:39.992Z,99566.91
2019-05-02T02:45:20.446Z,99572.53
2019-05-02T02:47:52.970Z,99571.27
2019-05-02T02:50:18.496Z,99568.27
2019-05-02T02:52:47.138Z,99568.31
2019-05-02T02:55:16.198Z,99568.38
2019-05-02T02:57:45.774Z,99572.05
2019-05-02T03:00:14.330Z,99570.66
2019-05-02T03:02:47.574Z,99569.08
2019-05-02T03:05:18.997Z,99567.50
2019-05-02T03:07:42.511Z,99559.55
2019-05-02T03:10:10.741Z,99565.67
2019-05-02T03:13:04.613Z,99562.44
2019-05-02T03:15:36.320Z,99571.27
2019-05-02T03:18:04.427Z,99562.78
2019-05-02T03:20:39.546Z,99564.47
2019-05-02T03:23:03.140Z,99564.97
2019-05-02T03:25:49.721Z,99563.20
2019-05-02T03:28:02.308Z,99572.59
2019-05-02T03:30:36.410Z,99567.42
2019-05-02T03:33:10.399Z,99568.64
2019-05-02T03:35:43.329Z,99574.41
2019-05-02T03:38:02.960Z,99570.73
2019-05-02T03:40:32.243Z,99567.17
2019-05-02T03:43:01.185Z,99566.13
2019-05-02T03:45:32.329Z,99564.73
2019-05-02T03:48:01.874Z,99561.80
2019-05-02T03:50:32.779Z,99566.56
2019-05-02T03:53:00.351Z,99561.38
2019-05-02T03:55:30.896Z,99563.19
2019-05-02T03:57:58.578Z,99563.53
2019-05-02T04:00:28.113Z,99556.48
2019-05-02T04:03:00.505Z,99559.58
2019-05-02T04:05:26.505Z,99556.33
2019-05-02T04:07:54.806Z,99558.89
2019-05-02T04:11:23.224Z,99556.09
2019-05-02T04:13:55.493Z,99546.80
2019-05-02T04:16:25.986Z,99544.36
2019-05-02T04:18:58.388Z,99546.67
2019-05-02T04:21:26.820Z,99546.67
2019-05-02T04:24:06.638Z,99548.11
2019-05-02T04:26:27.437Z,99547.42
2019-05-02T04:28:57.281Z,99549.70
2019-05-02T04:31:31.762Z,99550.70
2019-05-02T04:33:55.632Z,99547.61
2019-05-02T04:36:23.681Z,99546.17
2019-05-02T04:38:52.716Z,99554.02
2019-05-02T04:41:28.562Z,99549.91
2019-05-02T04:43:57.611Z,99551.66
2019-05-02T04:46:26.998Z,99554.13
2019-05-02T04:48:52.961Z,99549.05
2019-05-02T04:51:21.272Z,99553.31
2019-05-02T04:53:50.125Z,99556.56
2019-05-02T04:56:19.839Z,99557.68
2019-05-02T04:58:49.391Z,99558.30
2019-05-02T05:01:18.005Z,99556.34
2019-05-02T05:03:49.143Z,99562.20
2019-05-02T05:06:18.926Z,99565.95
2019-05-02T05:08:48.266Z,99559.37
2019-05-02T05:11:21.367Z,99563.09
2019-05-02T05:13:47.928Z,99566.64
2019-05-02T05:16:18.490Z,99569.08
2019-05-02T05:18:49.339Z,99572.97
2019-05-02T05:21:18.029Z,99573.25
2019-05-02T05:24:07.738Z,99570.98
2019-05-02T05:26:41.001Z,99574.19
2019-05-02T05:29:08.304Z,99566.61
2019-05-02T05:31:38.234Z,99575.87
2019-05-02T05:34:09.845Z,99581.05
2019-05-02T05:36:38.074Z,99579.51
2019-05-02T05:39:08.513Z,99575.54
2019-05-02T05:41:37.908Z,99577.16
2019-05-02T05:44:07.800Z,99576.09
2019-05-02T05:46:38.688Z,99576.67
2019-05-02T05:49:12.526Z,99583.31
2019-05-02T05:51:37.506Z,99581.77
2019-05-02T05:54:07.604Z,99580.53
2019-05-02T05:56:39.667Z,99580.61
2019-05-02T05:59:07.854Z,99578.88
2019-05-02T06:01:38.444Z,99579.76
2019-05-02T06:04:07.965Z,99573.27
2019-05-02T06:06:37.760Z,99582.47
2019-05-02T06:09:07.704Z,99567.60
2019-05-02T06:11:35.769Z,99567.08
2019-05-02T06:14:04.430Z,99565.58
2019-05-02T06:16:35.087Z,99563.48
2019-05-02T06:19:02.857Z,99564.59
2019-05-02T06:21:31.081Z,99569.95
2019-05-02T06:23:59.224Z,99570.65
2019-05-02T06:26:27.251Z,99566.48
2019-05-02T06:28:55.416Z,99568.69
2019-05-02T06:31:23.418Z,99572.20
2019-05-02T06:33:51.522Z,99569.30
2019-05-02T06:36:19.573Z,99575.25
2019-05-02T06:38:52.261Z,99570.72
2019-05-02T06:41:21.015Z,99564.72
2019-05-02T06:43:48.349Z,99574.90
2019-05-02T06:46:21.498Z,99572.80
2019-05-02T06:48:48.171Z,99570.67
2019-05-02T06:51:19.512Z,99567.54
2019-05-02T06:53:47.003Z,99570.09
2019-05-02T06:56:16.494Z,99572.63
2019-05-02T06:58:44.548Z,99568.17
2019-05-02T07:01:16.306Z,99564.06
2019-05-02T07:03:46.233Z,99564.09
2019-05-02T07:06:13.235Z,99570.51
2019-05-02T07:08:41.645Z,99561.77
2019-05-02T07:11:09.747Z,99550.09
2019-05-02T07:13:42.031Z,99549.45
2019-05-02T07:16:37.478Z,99546.38
2019-05-02T07:19:02.361Z,99544.08
2019-05-02T07:21:31.113Z,99544.13
2019-05-02T07:23:59.318Z,99540.90
2019-05-02T07:26:27.370Z,99539.23
2019-05-02T07:28:55.474Z,99528.37
2019-05-02T07:31:23.498Z,99523.88
2019-05-02T07:33:51.586Z,99518.61
2019-05-02T07:36:19.746Z,99521.56
2019-05-02T07:38:48.836Z,99516.05
2019-05-02T07:41:19.106Z,99518.75
2019-05-02T07:43:47.287Z,99519.80
2019-05-02T07:46:22.154Z,99514.78
2019-05-02T07:48:54.697Z,99510.02
2019-05-02T07:51:21.356Z,99508.97
2019-05-02T07:53:50.412Z,99504.95
2019-05-02T07:56:18.985Z,99495.59
2019-05-02T07:58:48.132Z,99497.33
2019-05-02T08:01:16.236Z,99494.80
2019-05-02T08:03:44.468Z,99494.91
2019-05-02T08:06:12.554Z,99493.66
2019-05-02T08:08:40.892Z,99494.23
2019-05-02T08:11:09.082Z,99491.31
2019-05-02T08:13:37.113Z,99489.23
2019-05-02T08:16:05.495Z,99486.56
2019-05-02T08:18:33.608Z,99488.69
2019-05-02T08:21:02.087Z,99488.62
2019-05-02T08:23:30.446Z,99486.62
2019-05-02T08:25:58.657Z,99497.17
2019-05-02T08:28:37.785Z,99489.34
2019-05-02T08:31:08.124Z,99495.55
2019-05-02T08:33:36.167Z,99496.66
2019-05-02T08:36:07.162Z,99502.06
2019-05-02T08:38:35.412Z,99506.63
2019-05-02T08:41:03.491Z,99505.30
2019-05-02T08:43:31.704Z,99506.11
2019-05-02T08:46:01.552Z,99504.75
2019-05-02T08:48:29.597Z,99509.30
2019-05-02T08:50:58.117Z,99505.02
2019-05-02T08:53:26.165Z,99503.38
2019-05-02T08:55:55.331Z,99503.81
2019-05-02T08:58:23.403Z,99497.87
2019-05-02T09:00:51.586Z,99488.97
2019-05-02T09:03:19.666Z,99484.39
2019-05-02T09:05:48.028Z,99487.48
2019-05-02T09:08:16.596Z,99483.36
2019-05-02T09:10:45.408Z,99479.98
2019-05-02T09:13:17.964Z,99478.45
2019-05-02T09:15:49.790Z,99477.42
2019-05-02T09:18:13.791Z,99477.99
2019-05-02T09:20:42.444Z,99473.73
2019-05-02T09:23:12.409Z,99473.75
2019-05-02T09:25:42.848Z,99471.36
2019-05-02T09:28:12.465Z,99470.57
2019-05-02T09:30:42.686Z,99469.66
2019-05-02T09:33:11.857Z,99464.53
2019-05-02T09:35:42.197Z,99457.73
2019-05-02T09:38:26.930Z,99459.33
2019-05-02T09:40:56.975Z,99460.56
2019-05-02T09:43:29.324Z,99459.27
2019-05-02T09:45:58.624Z,99449.50
2019-05-02T09:48:27.023Z,99448.62
2019-05-02T09:50:57.756Z,99450.70
2019-05-02T09:53:25.655Z,99445.65
2019-05-02T09:55:57.708Z,99445.47
2019-05-02T09:58:24.167Z,99442.92
2019-05-02T10:01:01.995Z,99432.78
2019-05-02T10:03:31.906Z,99435.42
2019-05-02T10:06:03.122Z,99436.33
2019-05-02T10:08:32.268Z,99424.35
2019-05-02T10:11:02.597Z,99423.16
2019-05-02T10:13:31.944Z,99424.75
2019-05-02T10:16:02.064Z,99416.30
2019-05-02T10:18:32.806Z,99409.13
2019-05-02T10:21:02.806Z,99403.34
2019-05-02T10:23:32.102Z,99400.70
2019-05-02T10:26:02.692Z,99403.75
2019-05-02T10:28:32.463Z,99396.14
2019-05-02T10:31:02.280Z,99391.87
2019-05-02T10:33:33.710Z,99386.73
2019-05-02T10:36:02.541Z,99387.53
2019-05-02T10:38:32.611Z,99378.69
2019-05-02T10:41:02.676Z,99380.86
2019-05-02T10:43:32.924Z,99373.27
2019-05-02T10:46:12.577Z,99376.46
2019-05-02T10:48:46.646Z,99374.95
2019-05-02T10:51:34.793Z,99378.32
2019-05-02T10:54:06.384Z,99377.98
2019-05-02T10:56:35.951Z,99367.14
2019-05-02T10:59:04.816Z,99365.39
2019-05-02T11:01:47.681Z,99359.89
2019-05-02T11:04:16.538Z,99365.04
2019-05-02T11:06:46.272Z,99348.91
2019-05-02T11:09:16.802Z,99350.45
2019-05-02T11:11:45.851Z,99347.42
2019-05-02T11:14:26.598Z,99345.77
2019-05-02T11:17:13.935Z,99344.26
2019-05-02T11:19:56.554Z,99348.54
2019-05-02T11:22:24.926Z,99342.61
2019-05-02T11:24:52.964Z,99341.09
2019-05-02T11:27:22.118Z,99346.16
2019-05-02T11:29:52.525Z,99337.49
2019-05-02T11:32:22.110Z,99332.16
2019-05-02T11:34:52.282Z,99330.39
2019-05-02T11:37:20.333Z,99326.78
2019-05-02T11:39:52.323Z,99330.22
2019-05-02T11:42:23.248Z,99322.64
2019-05-02T11:44:49.457Z,99318.30
2019-05-02T11:47:21.827Z,99319.16
2019-05-02T11:49:52.152Z,99311.94
2019-05-02T11:52:19.290Z,99307.51
2019-05-02T11:54:48.660Z,99303.77
2019-05-02T11:57:21.259Z,99310.53
2019-05-02T11:59:47.592Z,99312.02
2019-05-02T12:02:41.622Z,99312.00
2019-05-02T12:05:12.792Z,99311.86
2019-05-02T12:07:41.798Z,99307.98
2019-05-02T12:10:12.389Z,99302.73
2019-05-02T12:12:40.287Z,99308.06
2019-05-02T12:15:11.482Z,99304.17
2019-05-02T12:17:41.886Z,99301.06
2019-05-02T12:20:11.853Z,99296.25
2019-05-02T12:22:41.940Z,99290.94
2019-05-02T12:25:12.458Z,99292.61
2019-05-02T12:27:42.483Z,99290.61
2019-05-02T12:30:11.802Z,99286.23
2019-05-02T12:32:39.974Z,99292.70
2019-05-02T12:35:09.290Z,99287.70
2019-05-02T12:37:37.471Z,99283.63
2019-05-02T12:40:07.742Z,99289.63
2019-05-02T12:42:36.906Z,99284.06
2019-05-02T12:45:06.511Z,99269.72
2019-05-02T12:47:34.761Z,99275.61
2019-05-02T12:50:03.326Z,99271.81
2019-05-02T12:52:32.098Z,99271.45
2019-05-02T12:55:02.132Z,99265.17
2019-05-02T12:57:32.102Z,99263.88
2019-05-02T13:00:01.873Z,99262.46
2019-05-02T13:02:56.137Z,99255.16
2019-05-02T13:05:24.234Z,99249.94
2019-05-02T13:07:55.274Z,99251.93
2019-05-02T13:10:32.734Z,99243.95
2019-05-02T13:13:02.822Z,99245.39
2019-05-02T13:15:32.809Z,99240.95
2019-05-02T13:18:03.004Z,99247.59
2019-05-02T13:20:34.730Z,99247.76
2019-05-02T13:23:35.432Z,99255.50
2019-05-02T13:26:02.491Z,99260.55
2019-05-02T13:28:32.445Z,99287.22
2019-05-02T13:31:11.753Z,99317.53
2019-05-02T13:33:47.197Z,99331.01
2019-05-02T13:36:39.122Z,99331.48
2019-05-02T13:39:13.110Z,99337.70
2019-05-02T13:41:42.810Z,99355.95
2019-05-02T13:44:13.092Z,99370.26
2019-05-02T13:46:41.965Z,99375.03
2019-05-02T13:49:12.776Z,99375.25
2019-05-02T13:51:42.624Z,99376.73
2019-05-02T13:54:12.573Z,99385.69
2019-05-02T13:56:53.150Z,99390.14
2019-05-02T13:59:22.997Z,99393.16
2019-05-02T14:01:52.879Z,99391.12
2019-05-02T14:04:23.258Z,99399.42
2019-05-02T14:06:53.107Z,99399.84
2019-05-02T14:09:39.794Z,99408.48
2019-05-02T14:12:23.523Z,99410.75
2019-05-02T14:14:54.105Z,99409.44
2019-05-02T14:17:22.936Z,99414.19
2019-05-02T14:20:01.197Z,99402.55
2019-05-02T14:22:22.631Z,99393.61
2019-05-02T14:24:51.935Z,99397.22
2019-05-02T14:27:22.349Z,99398.16
2019-05-02T14:29:52.498Z,99400.19
2019-05-02T14:32:26.187Z,99398.73
2019-05-02T14:35:13.383Z,99388.46
2019-05-02T14:37:42.825Z,99388.00
2019-05-02T14:40:24.835Z,99384.13
2019-05-02T14:42:53.104Z,99382.33
2019-05-02T14:45:30.820Z,99386.07
2019-05-02T14:47:57.570Z,99387.48
2019-05-02T14:50:26.396Z,99387.20
2019-05-02T14:52:52.722Z,99382.37
2019-05-02T14:55:23.959Z,99378.08
2019-05-02T14:57:52.624Z,99385.30
2019-05-02T15:00:25.586Z,99374.11
2019-05-02T15:02:55.690Z,99377.28
2019-05-02T15:05:29.493Z,99380.44
2019-05-02T15:07:56.755Z,99368.77
2019-05-02T15:10:24.974Z,99368.20
2019-05-02T15:12:59.487Z,99367.08
2019-05-02T15:15:23.244Z,99369.23
2019-05-02T15:17:53.114Z,99360.84
2019-05-02T15:20:22.395Z,99347.09
2019-05-02T15:22:52.302Z,99340.71
2019-05-02T15:25:21.745Z,99344.91
2019-05-02T15:27:58.567Z,99338.87
2019-05-02T15:30:23.992Z,99337.02
2019-05-02T15:32:57.372Z,99337.55
2019-05-02T15:36:01.920Z,99343.78
2019-05-02T15:38:29.399Z,99339.48
2019-05-02T15:40:59.123Z,99334.62
2019-05-02T15:43:31.686Z,99330.08
2019-05-02T15:45:59.630Z,99325.31
2019-05-02T15:48:27.906Z,99335.38
2019-05-02T15:51:00.207Z,99331.92
2019-05-02T15:53:49.750Z,99322.34
2019-05-02T15:56:20.301Z,99327.87
2019-05-02T15:58:46.088Z,99323.70
2019-05-02T16:01:32.184Z,99331.27
2019-05-02T16:04:01.740Z,99334.14
2019-05-02T16:06:33.657Z,99331.20
2019-05-02T16:09:02.328Z,99328.05
2019-05-02T16:11:32.685Z,99339.14
2019-05-02T16:14:02.192Z,99335.17
2019-05-02T16:16:32.056Z,99337.30
2019-05-02T16:19:02.169Z,99337.59
2019-05-02T16:21:42.687Z,99331.20
2019-05-02T16:24:19.978Z,99323.70
2019-05-02T16:26:49.643Z,99336.13
2019-05-02T16:29:24.325Z,99337.39
2019-05-02T16:31:59.768Z,99336.58
2019-05-02T16:34:27.453Z,99333.33
2019-05-02T16:37:13.476Z,99342.02
2019-05-02T16:39:42.532Z,99340.41
2019-05-02T16:42:12.434Z,99342.47
2019-05-02T16:44:42.735Z,99350.83
2019-05-02T16:47:10.876Z,99349.96
2019-05-02T16:49:47.874Z,99352.80
2019-05-02T16:52:16.185Z,99359.06
2019-05-02T16:55:06.533Z,99357.88
2019-05-02T16:57:35.284Z,99361.72
2019-05-02T17:00:06.362Z,99362.38
2019-05-02T17:02:43.599Z,99365.76
2019-05-02T17:05:12.086Z,99364.86
2019-05-02T17:07:54.121Z,99359.52
2019-05-02T17:10:28.932Z,99361.87
2019-05-02T17:13:00.272Z,99359.74
2019-05-02T17:15:35.206Z,99361.77
2019-05-02T17:18:12.984Z,99359.07
2019-05-02T17:20:54.913Z,99358.48
2019-05-02T17:23:19.578Z,99351.28
2019-05-02T17:25:47.615Z,99360.98
2019-05-02T17:28:16.045Z,99358.23
2019-05-02T17:30:44.450Z,99365.30
2019-05-02T17:33:16.304Z,99364.42
2019-05-02T17:35:49.907Z,99369.31
2019-05-02T17:38:18.975Z,99367.13
2019-05-02T17:40:46.138Z,99372.31
2019-05-02T17:43:15.928Z,99378.56
2019-05-02T17:45:43.983Z,99375.02
2019-05-02T17:48:16.569Z,99374.41
2019-05-02T17:50:58.907Z,99386.22
2019-05-02T17:53:24.551Z,99384.80
2019-05-02T17:55:52.686Z,99395.58
2019-05-02T17:58:21.267Z,99402.11
2019-05-02T18:00:52.301Z,99398.86
2019-05-02T18:03:24.058Z,99402.23
2019-05-02T18:05:52.985Z,99405.61
2019-05-02T18:08:21.863Z,99399.94
2019-05-02T18:10:50.590Z,99400.38
2019-05-02T18:13:20.223Z,99398.77
2019-05-02T18:15:48.284Z,99397.34
2019-05-02T18:18:17.309Z,99400.21
2019-05-02T18:20:46.594Z,99399.41
2019-05-02T18:23:18.759Z,99400.95
2019-05-02T18:25:47.092Z,99405.90
2019-05-02T18:28:22.237Z,99406.93
2019-05-02T18:30:45.499Z,99411.63
2019-05-02T18:33:13.721Z,99412.06
2019-05-02T18:35:46.806Z,99412.98
2019-05-02T18:38:16.029Z,99422.44
2019-05-02T18:40:43.632Z,99415.55
2019-05-02T18:43:11.734Z,99421.23
2019-05-02T18:45:42.573Z,99425.12
2019-05-02T18:48:12.705Z,99427.66
2019-05-02T18:50:46.930Z,99431.53
2019-05-02T18:53:13.766Z,99432.48
2019-05-02T18:55:42.412Z,99437.66
2019-05-02T18:58:12.792Z,99438.61
2019-05-02T19:00:42.096Z,99444.00
2019-05-02T19:03:13.225Z,99446.84
2019-05-02T19:05:42.250Z,99442.30
2019-05-02T19:08:12.032Z,99448.79
2019-05-02T19:10:44.695Z,99452.45
2019-05-02T19:13:12.859Z,99450.73
2019-05-02T19:15:45.445Z,99455.41
2019-05-02T19:18:18.023Z,99461.92
2019-05-02T19:21:07.966Z,99463.35
2019-05-02T19:23:37.530Z,99465.91
2019-05-02T19:26:14.636Z,99471.29
2019-05-02T19:28:56.192Z,99474.14
2019-05-02T19:31:36.642Z,99466.84
2019-05-02T19:34:04.847Z,99461.99
2019-05-02T19:36:32.945Z,99468.30
2019-05-02T19:39:06.345Z,99472.36
2019-05-02T19:41:32.315Z,99471.47
2019-05-02T19:44:02.325Z,99468.72
2019-05-02T19:46:38.575Z,99468.63
2019-05-02T19:49:02.148Z,99474.12
2019-05-02T19:51:31.704Z,99472.38
2019-05-02T19:54:03.227Z,99465.20
2019-05-02T19:56:33.334Z,99470.69
2019-05-02T19:59:00.000Z,99467.13
2019-05-02T20:01:28.045Z,99468.66
2019-05-02T20:03:56.809Z,99474.35
2019-05-02T20:06:26.165Z,99473.22
2019-05-02T20:08:59.335Z,99465.23
2019-05-02T20:11:28.097Z,99469.27
2019-05-02T20:13:54.625Z,99465.45
2019-05-02T20:16:44.186Z,99472.42
2019-05-02T20:19:08.027Z,99468.89
2019-05-02T20:21:44.471Z,99467.97
2019-05-02T20:24:17.368Z,99463.42
2019-05-02T20:26:46.777Z,99461.72
2019-05-02T20:29:12.587Z,99458.16
2019-05-02T20:31:40.632Z,99458.58
2019-05-02T20:34:08.713Z,99464.02
2019-05-02T20:36:37.427Z,99463.12
2019-05-02T20:39:08.151Z,99465.16
2019-05-02T20:41:36.737Z,99468.60
2019-05-02T20:44:05.166Z,99469.11
2019-05-02T20:46:33.400Z,99465.96
2019-05-02T20:49:02.107Z,99466.17
2019-05-02T20:51:31.956Z,99466.55
2019-05-02T20:54:01.920Z,99468.89
2019-05-02T20:56:32.028Z,99465.53
2019-05-02T20:59:01.975Z,99470.20
2019-05-02T21:01:32.175Z,99472.10
2019-05-02T21:04:02.910Z,99462.47
2019-05-02T21:06:53.510Z,99464.16
2019-05-02T21:09:42.403Z,99463.27
2019-05-02T21:12:12.610Z,99462.33
2019-05-02T21:14:41.615Z,99462.03
2019-05-02T21:17:09.691Z,99455.87
2019-05-02T21:19:38.192Z,99462.52
2019-05-02T21:22:15.877Z,99466.17
2019-05-02T21:24:45.049Z,99466.87
2019-05-02T21:27:13.080Z,99468.20
2019-05-02T21:29:42.574Z,99464.62
2019-05-02T21:32:12.117Z,99460.49
2019-05-02T21:34:42.476Z,99459.05
2019-05-02T21:37:11.289Z,99461.38
2019-05-02T21:39:39.359Z,99464.01
2019-05-02T21:42:08.526Z,99467.14
2019-05-02T21:44:36.621Z,99464.21
2019-05-02T21:47:05.821Z,99467.86
2019-05-02T21:49:49.877Z,99468.66
2019-05-02T21:52:37.543Z,99469.67
2019-05-02T21:55:16.220Z,99466.62
2019-05-02T21:57:44.262Z,99471.98
2019-05-02T22:00:38.755Z,99471.55
2019-05-02T22:03:08.193Z,99468.92
2019-05-02T22:05:36.365Z,99474.59
2019-05-02T22:08:04.600Z,99471.62
2019-05-02T22:10:33.044Z,99470.72
2019-05-02T22:13:03.488Z,99471.42
2019-05-02T22:15:32.508Z,99473.42
2019-05-02T22:18:01.682Z,99472.61
2019-05-02T22:20:32.041Z,99468.16
2019-05-02T22:23:00.146Z,99464.05
2019-05-02T22:25:28.234Z,99462.23
2019-05-02T22:27:56.682Z,99464.52
2019-05-02T22:30:24.781Z,99472.61
2019-05-02T22:32:54.335Z,99465.23
2019-05-02T22:35:22.537Z,99464.62
2019-05-02T22:37:53.502Z,99465.64
2019-05-02T22:40:23.422Z,99464.19
2019-05-02T22:42:52.313Z,99472.08
2019-05-02T22:45:21.808Z,99465.51
2019-05-02T22:47:51.951Z,99465.94
2019-05-02T22:50:21.919Z,99469.88
2019-05-02T22:52:52.092Z,99472.31
2019-05-02T22:55:19.984Z,99466.04
2019-05-02T22:57:51.672Z,99467.86
2019-05-02T23:00:19.495Z,99471.30
2019-05-02T23:02:49.806Z,99468.97
2019-05-02T23:05:17.844Z,99467.48
2019-05-02T23:07:46.282Z,99459.27
2019-05-02T23:10:14.422Z,99468.67
2019-05-02T23:12:42.685Z,99471.30
2019-05-02T23:15:12.541Z,99466.75
2019-05-02T23:17:42.809Z,99468.36
2019-05-02T23:20:12.772Z,99463.41
2019-05-02T23:22:41.823Z,99463.62
2019-05-02T23:25:40.314Z,99470.48
2019-05-02T23:28:13.884Z,99462.61
2019-05-02T23:30:43.665Z,99465.73
2019-05-02T23:33:12.958Z,99462.09
2019-05-02T23:35:43.054Z,99459.27
2019-05-02T23:38:12.579Z,99461.52
2019-05-02T23:40:42.092Z,99459.49
2019-05-02T23:43:12.395Z,99455.05
2019-05-02T23:45:42.188Z,99452.72
2019-05-02T23:48:10.405Z,99450.72
2019-05-02T23:50:40.055Z,99452.04
2019-05-02T23:53:08.132Z,99452.64
2019-05-02T23:55:37.328Z,99459.22
2019-05-02T23:58:05.384Z,99458.20
